createdAt,value
2019-05-02T00:01:05.447Z,10.20
2019-05-02T00:03:41.221Z,10.30
2019-05-02T00:06:15.251Z,10.30
2019-05-02T00:08:50.219Z,10.20
2019-05-02T00:11:24.327Z,10.20
2019-05-02T00:13:55.455Z,10.20
2019-05-02T00:16:25.464Z,10.10
2019-05-02T00:18:55.953Z,10.10
2019-05-02T00:21:27.049Z,10.10
2019-05-02T00:23:59.179Z,10.00
2019-05-02T00:26:28.550Z,10.00
2019-05-02T00:29:02.131Z,10.00
2019-05-02T00:31:32.385Z,9.90
2019-05-02T00:34:03.277Z,9.90
2019-05-02T00:36:32.841Z,9.90
2019-05-02T00:39:02.242Z,9.90
2019-05-02T00:41:38.281Z,9.80
2019-05-02T00:44:06.026Z,9.90
2019-05-02T00:46:39.432Z,9.90
2019-05-02T00:49:13.501Z,9.90
2019-05-02T00:51:46.897Z,9.90
2019-05-02T00:54:19.276Z,9.90
2019-05-02T00:56:49.501Z,9.90
2019-05-02T00:59:19.255Z,9.90
2019-05-02T01:02:05.356Z,9.90
2019-05-02T01:04:36.072Z,9.90
2019-05-02T01:07:07.525Z,9.90
2019-05-02T01:09:52.378Z,9.90
2019-05-02T01:12:44.517Z,9.90
2019-05-02T01:15:46.506Z,9.90
2019-05-02T01:17:53.332Z,9.90
2019-05-02T01:20:27.562Z,9.90
2019-05-02T01:22:54.317Z,9.90
2019-05-02T01:25:24.043Z,9.80
2019-05-02T01:28:17.689Z,9.80
2019-05-02T01:31:18.330Z,9.80
2019-05-02T01:34:07.122Z,9.80
2019-05-02T01:36:41.429Z,9.90
2019-05-02T01:39:12.664Z,9.90
2019-05-02T01:41:42.497Z,9.90
2019-05-02T01:44:11.998Z,9.90
2019-05-02T01:46:41.588Z,9.90
2019-05-02T01:49:11.200Z,9.80
2019-05-02T01:51:47.776Z,9.80
2019-05-02T01:54:18.861Z,9.80
2019-05-02T01:56:48.638Z,9.90
2019-05-02T01:59:18.225Z,9.80
2019-05-02T02:01:53.237Z,9.90
2019-05-02T02:04:21.013Z,9.90
2019-05-02T02:06:52.375Z,9.90
2019-05-02T02:09:23.386Z,9.90
2019-05-02T02:11:59.642Z,9.90
2019-05-02T02:14:29.477Z,9.90
2019-05-02T02:16:59.029Z,9.90
2019-05-02T02:19:34.583Z,9.90
2019-05-02T02:22:33.768Z,9.90
2019-05-02T02:25:26.200Z,9.90
2019-05-02T02:28:01.700Z,9.90
2019-05-02T02:30:34.124Z,9.90
2019-05-02T02:33:13.376Z,9.90
2019-05-02T02:35:49.173Z,9.90
2019-05-02T02:38:14.277Z,9.90
2019-05-02T02:40:47.996Z,9.90
2019-05-02T02:43:54.742Z,10.00
2019-05-02T02:46:37.782Z,10.00
2019-05-02T02:49:02.568Z,9.90
2019-05-02T02:51:32.211Z,9.90
2019-05-02T02:54:03.750Z,9.90
2019-05-02T02:56:34.577Z,9.90
2019-05-02T02:59:04.319Z,9.90
2019-05-02T03:01:33.959Z,9.90
2019-05-02T03:04:09.715Z,9.90
2019-05-02T03:06:38.401Z,10.00
2019-05-02T03:09:09.005Z,9.90
2019-05-02T03:12:02.319Z,9.90
2019-05-02T03:14:30.830Z,9.90
2019-05-02T03:17:00.437Z,10.00
2019-05-02T03:19:29.978Z,10.00
2019-05-02T03:22:01.548Z,10.10
2019-05-02T03:24:36.495Z,10.10
2019-05-02T03:27:01.961Z,10.10
2019-05-02T03:29:41.229Z,10.10
2019-05-02T03:32:16.132Z,10.10
2019-05-02T03:34:47.223Z,10.10
2019-05-02T03:37:11.322Z,10.00
2019-05-02T03:39:49.246Z,10.00
2019-05-02T03:42:20.511Z,10.00
2019-05-02T03:44:56.237Z,10.00
2019-05-02T03:47:23.645Z,10.00
2019-05-02T03:59:14.927Z,10.00
2019-05-02T04:02:19.771Z,10.00
2019-05-02T04:04:46.783Z,10.10
2019-05-02T04:07:19.450Z,10.10
2019-05-02T04:09:49.016Z,10.10
2019-05-02T04:12:21.972Z,10.00
2019-05-02T04:14:55.574Z,10.00
2019-05-02T04:17:28.883Z,9.90
2019-05-02T04:19:55.234Z,10.00
2019-05-02T04:22:25.213Z,9.90
2019-05-02T04:24:57.245Z,9.90
2019-05-02T04:27:33.966Z,10.00
2019-05-02T04:30:09.986Z,10.00
2019-05-02T04:32:29.553Z,10.00
2019-05-02T04:34:59.259Z,10.00
2019-05-02T04:37:34.360Z,10.10
2019-05-02T04:40:03.195Z,10.10
2019-05-02T04:42:31.199Z,10.10
2019-05-02T04:45:21.186Z,10.10
2019-05-02T04:47:32.079Z,10.10
2019-05-02T04:50:10.236Z,10.10
2019-05-02T04:52:38.365Z,10.10
2019-05-02T04:55:17.150Z,10.00
2019-05-02T04:57:37.956Z,10.00
2019-05-02T05:00:11.541Z,10.00
2019-05-02T05:02:40.493Z,10.00
2019-05-02T05:05:10.089Z,10.00
2019-05-02T05:07:46.090Z,10.00
2019-05-02T05:10:12.997Z,9.90
2019-05-02T05:12:42.468Z,10.00
2019-05-02T05:15:33.794Z,10.00
2019-05-02T05:17:45.565Z,10.00
2019-05-02T05:20:15.860Z,10.00
2019-05-02T05:22:47.509Z,10.00
2019-05-02T05:25:21.571Z,10.00
2019-05-02T05:27:52.548Z,10.00
2019-05-02T05:30:22.216Z,10.00
2019-05-02T05:32:51.785Z,10.00
2019-05-02T05:35:21.566Z,10.00
2019-05-02T05:37:53.102Z,10.00
2019-05-02T05:40:27.146Z,10.10
2019-05-02T05:42:53.478Z,10.00
2019-05-02T05:45:23.081Z,10.10
2019-05-02T05:47:56.874Z,10.00
2019-05-02T05:50:23.687Z,10.00
2019-05-02T05:52:53.223Z,10.10
2019-05-02T05:55:24.407Z,10.10
2019-05-02T05:57:59.960Z,10.10
2019-05-02T06:00:27.776Z,10.10
2019-05-02T06:03:10.200Z,10.10
2019-05-02T06:05:33.232Z,10.10
2019-05-02T06:08:03.082Z,10.10
2019-05-02T06:10:32.472Z,10.10
2019-05-02T06:13:05.310Z,10.10
2019-05-02T06:15:33.851Z,10.10
2019-05-02T06:18:04.832Z,10.10
2019-05-02T06:20:34.634Z,10.10
2019-05-02T06:23:04.088Z,10.10
2019-05-02T06:25:36.397Z,10.10
2019-05-02T06:28:05.423Z,10.10
2019-05-02T06:30:35.922Z,10.10
2019-05-02T06:33:05.446Z,10.10
2019-05-02T06:35:34.975Z,10.10
2019-05-02T06:38:04.461Z,10.10
2019-05-02T06:40:33.909Z,10.10
2019-05-02T06:43:04.447Z,10.10
2019-05-02T06:45:37.554Z,10.10
2019-05-02T06:48:08.538Z,10.10
2019-05-02T06:50:39.012Z,10.10
2019-05-02T06:53:11.014Z,10.10
2019-05-02T06:55:40.428Z,10.10
2019-05-02T06:58:10.049Z,10.10
2019-05-02T07:00:56.869Z,10.10
2019-05-02T07:03:12.715Z,10.10
2019-05-02T07:05:42.092Z,10.10
2019-05-02T07:08:13.920Z,10.10
2019-05-02T07:10:44.689Z,10.10
2019-05-02T07:13:15.186Z,10.10
2019-05-02T07:15:55.482Z,10.10
2019-05-02T07:18:28.892Z,10.20
2019-05-02T07:20:58.306Z,10.20
2019-05-02T07:23:27.694Z,10.20
2019-05-02T07:26:00.107Z,10.30
2019-05-02T07:28:28.267Z,10.40
2019-05-02T07:30:57.799Z,10.50
2019-05-02T07:33:27.227Z,10.50
2019-05-02T07:36:00.174Z,10.50
2019-05-02T07:38:27.761Z,10.60
2019-05-02T07:40:57.199Z,10.70
2019-05-02T07:43:30.333Z,10.80
2019-05-02T07:45:59.804Z,10.80
2019-05-02T07:48:29.279Z,11.00
2019-05-02T07:50:58.720Z,11.10
2019-05-02T07:53:28.154Z,11.20
2019-05-02T07:55:57.635Z,11.30
2019-05-02T07:58:27.003Z,11.30
2019-05-02T08:00:56.434Z,11.40
2019-05-02T08:03:29.363Z,11.50
2019-05-02T08:05:58.599Z,11.50
2019-05-02T08:08:29.824Z,11.60
2019-05-02T08:11:01.733Z,11.60
2019-05-02T08:13:31.553Z,11.60
2019-05-02T08:16:01.167Z,11.70
2019-05-02T08:18:31.666Z,11.70
2019-05-02T08:21:01.241Z,11.80
2019-05-02T08:23:30.640Z,11.90
2019-05-02T08:26:00.038Z,11.90
2019-05-02T08:28:46.964Z,12.00
2019-05-02T08:31:18.868Z,12.10
2019-05-02T08:33:46.588Z,12.10
2019-05-02T08:36:16.031Z,12.20
2019-05-02T08:38:48.845Z,12.30
2019-05-02T08:41:20.269Z,12.50
2019-05-02T08:43:50.344Z,12.50
2019-05-02T08:46:21.356Z,12.70
2019-05-02T08:48:50.949Z,12.70
2019-05-02T08:51:20.430Z,12.90
2019-05-02T08:53:56.285Z,12.90
2019-05-02T08:56:22.914Z,13.00
2019-05-02T08:58:52.394Z,13.10
2019-05-02T09:01:34.308Z,13.20
2019-05-02T09:03:57.050Z,13.30
2019-05-02T09:06:24.193Z,13.30
2019-05-02T09:08:53.717Z,13.40
2019-05-02T09:11:23.098Z,13.40
2019-05-02T09:13:52.682Z,13.50
2019-05-02T09:16:28.918Z,13.60
2019-05-02T09:18:54.243Z,13.70
2019-05-02T09:21:26.774Z,13.80
2019-05-02T09:23:54.934Z,13.80
2019-05-02T09:26:35.021Z,13.90
2019-05-02T09:28:56.385Z,14.00
2019-05-02T09:31:26.518Z,14.10
2019-05-02T09:33:55.868Z,14.10
2019-05-02T09:36:28.144Z,14.20
2019-05-02T09:38:57.775Z,14.30
2019-05-02T09:41:32.424Z,14.40
2019-05-02T09:43:58.429Z,14.50
2019-05-02T09:46:27.806Z,14.60
2019-05-02T09:49:01.755Z,14.70
2019-05-02T09:51:28.616Z,14.80
2019-05-02T09:54:02.644Z,14.90
2019-05-02T09:56:29.113Z,14.90
2019-05-02T09:59:06.182Z,15.00
2019-05-02T10:01:34.684Z,15.20
2019-05-02T10:04:04.368Z,15.20
2019-05-02T10:06:34.088Z,15.30
2019-05-02T10:09:05.787Z,15.40
2019-05-02T10:11:35.291Z,15.50
2019-05-02T10:14:05.262Z,15.60
2019-05-02T10:16:34.603Z,15.70
2019-05-02T10:19:09.503Z,15.80
2019-05-02T10:21:35.065Z,15.90
2019-05-02T10:24:04.638Z,16.00
2019-05-02T10:26:34.013Z,16.10
2019-05-02T10:29:03.370Z,16.20
2019-05-02T10:31:37.475Z,16.40
2019-05-02T10:34:03.885Z,16.50
2019-05-02T10:36:33.261Z,16.60
2019-05-02T10:39:02.785Z,16.60
2019-05-02T10:41:39.528Z,16.70
2019-05-02T10:44:03.317Z,16.80
2019-05-02T10:46:38.472Z,16.70
2019-05-02T10:49:19.718Z,16.90
2019-05-02T10:51:51.870Z,17.00
2019-05-02T10:54:23.028Z,17.00
2019-05-02T10:56:52.188Z,17.10
2019-05-02T10:59:22.113Z,17.10
2019-05-02T11:02:09.341Z,17.20
2019-05-02T11:04:42.502Z,17.20
2019-05-02T11:07:12.030Z,17.30
2019-05-02T11:09:42.023Z,17.40
2019-05-02T11:12:16.427Z,17.40
2019-05-02T11:14:54.659Z,17.50
2019-05-02T11:17:36.392Z,17.50
2019-05-02T11:20:08.410Z,17.60
2019-05-02T11:22:37.792Z,17.60
2019-05-02T11:25:07.519Z,17.60
2019-05-02T11:27:36.895Z,17.50
2019-05-02T11:30:07.278Z,17.50
2019-05-02T11:32:36.764Z,17.50
2019-05-02T11:35:06.344Z,17.50
2019-05-02T11:37:35.728Z,17.50
2019-05-02T11:40:07.517Z,17.60
2019-05-02T11:42:37.487Z,17.70
2019-05-02T11:45:07.325Z,17.70
2019-05-02T11:47:36.724Z,17.80
2019-05-02T11:50:06.764Z,17.70
2019-05-02T11:52:37.523Z,17.70
2019-05-02T11:55:07.040Z,17.70
2019-05-02T11:57:36.414Z,17.70
2019-05-02T12:00:08.970Z,17.70
2019-05-02T12:03:02.037Z,17.70
2019-05-02T12:05:42.976Z,17.70
2019-05-02T12:08:12.446Z,17.60
2019-05-02T12:10:42.228Z,17.60
2019-05-02T12:13:15.959Z,17.60
2019-05-02T12:15:44.400Z,17.60
2019-05-02T12:18:13.930Z,17.50
2019-05-02T12:20:43.451Z,17.50
2019-05-02T12:23:13.120Z,17.40
2019-05-02T12:25:42.622Z,17.40
2019-05-02T12:28:12.200Z,17.40
2019-05-02T12:30:41.996Z,17.40
2019-05-02T12:33:12.444Z,17.30
2019-05-02T12:35:43.260Z,17.30
2019-05-02T12:38:12.840Z,17.30
2019-05-02T12:40:42.370Z,17.30
2019-05-02T12:43:12.216Z,17.30
2019-05-02T12:45:42.228Z,17.20
2019-05-02T12:48:13.005Z,17.10
2019-05-02T12:50:42.719Z,17.10
2019-05-02T12:53:12.742Z,17.00
2019-05-02T12:55:42.371Z,16.90
2019-05-02T12:58:12.586Z,16.90
2019-05-02T13:00:43.035Z,16.90
2019-05-02T13:03:31.801Z,16.80
2019-05-02T13:06:03.058Z,16.70
2019-05-02T13:08:34.192Z,16.60
2019-05-02T13:11:13.717Z,16.60
2019-05-02T13:13:41.886Z,16.50
2019-05-02T13:16:12.175Z,16.40
2019-05-02T13:18:42.384Z,16.30
2019-05-02T13:21:16.840Z,16.20
2019-05-02T13:24:02.315Z,16.10
2019-05-02T13:26:32.045Z,16.00
2019-05-02T13:29:02.453Z,15.90
2019-05-02T13:31:42.265Z,15.80
2019-05-02T13:34:43.297Z,15.70
2019-05-02T13:37:14.938Z,15.70
2019-05-02T13:39:53.353Z,15.60
2019-05-02T13:42:22.817Z,15.60
2019-05-02T13:45:07.206Z,15.50
2019-05-02T13:47:36.576Z,15.40
2019-05-02T13:50:07.017Z,15.30
2019-05-02T13:52:36.362Z,15.20
2019-05-02T13:55:08.036Z,15.10
2019-05-02T13:57:43.129Z,15.10
2019-05-02T14:00:08.847Z,15.00
2019-05-02T14:02:40.048Z,14.90
2019-05-02T14:05:18.268Z,14.90
2019-05-02T14:07:55.650Z,14.80
2019-05-02T14:10:32.182Z,14.70
2019-05-02T14:12:59.535Z,14.60
2019-05-02T14:15:37.739Z,14.50
2019-05-02T14:18:12.545Z,14.50
2019-05-02T14:20:42.775Z,14.40
2019-05-02T14:23:15.192Z,14.30
2019-05-02T14:25:54.666Z,14.30
2019-05-02T14:28:26.868Z,14.20
2019-05-02T14:30:56.245Z,14.20
2019-05-02T14:33:27.234Z,14.10
2019-05-02T14:35:56.629Z,14.10
2019-05-02T14:38:26.007Z,14.10
2019-05-02T14:41:21.780Z,14.10
2019-05-02T14:43:53.594Z,14.10
2019-05-02T14:46:29.023Z,14.10
2019-05-02T14:48:59.455Z,14.00
2019-05-02T14:51:28.882Z,14.00
2019-05-02T14:54:05.825Z,14.00
2019-05-02T14:56:46.246Z,14.00
2019-05-02T14:59:15.157Z,14.00
2019-05-02T15:01:43.203Z,13.90
2019-05-02T15:04:13.010Z,13.90
2019-05-02T15:06:47.111Z,13.90
2019-05-02T15:09:16.672Z,13.90
2019-05-02T15:11:59.051Z,13.90
2019-05-02T15:14:29.997Z,13.90
2019-05-02T15:16:59.662Z,13.90
2019-05-02T15:19:29.068Z,13.90
2019-05-02T15:21:58.570Z,13.90
2019-05-02T15:24:33.177Z,13.80
2019-05-02T15:27:03.938Z,13.80
2019-05-02T15:29:32.175Z,13.70
2019-05-02T15:32:22.022Z,13.70
2019-05-02T15:35:27.031Z,13.60
2019-05-02T15:38:01.234Z,13.60
2019-05-02T15:43:04.144Z,13.50
2019-05-02T15:45:29.702Z,13.50
2019-05-02T15:47:59.215Z,13.50
2019-05-02T15:50:28.729Z,13.50
2019-05-02T15:53:25.084Z,13.40
2019-05-02T15:55:54.530Z,13.40
2019-05-02T15:58:27.903Z,13.40
2019-05-02T16:01:13.391Z,13.30
2019-05-02T16:03:46.167Z,13.30
2019-05-02T16:06:21.073Z,13.20
2019-05-02T16:08:49.536Z,13.30
2019-05-02T16:11:19.413Z,13.20
2019-05-02T16:13:54.079Z,13.30
2019-05-02T16:16:22.068Z,13.20
2019-05-02T16:18:52.535Z,13.20
2019-05-02T16:21:42.628Z,13.20
2019-05-02T16:24:27.132Z,13.20
2019-05-02T16:26:57.293Z,13.20
2019-05-02T16:29:28.850Z,13.20
2019-05-02T16:32:09.600Z,13.20
2019-05-02T16:34:56.293Z,13.20
2019-05-02T16:37:52.314Z,13.20
2019-05-02T16:40:32.152Z,13.10
2019-05-02T16:42:59.643Z,13.10
2019-05-02T16:45:29.066Z,13.10
2019-05-02T16:48:00.478Z,13.10
2019-05-02T16:50:34.680Z,13.10
2019-05-02T16:53:03.294Z,13.20
2019-05-02T16:55:33.354Z,13.20
2019-05-02T16:58:07.125Z,13.20
2019-05-02T17:00:45.513Z,13.20
2019-05-02T17:03:17.308Z,13.20
2019-05-02T17:05:49.339Z,13.20
2019-05-02T17:08:42.216Z,13.30
2019-05-02T17:11:16.706Z,13.30
2019-05-02T17:13:46.271Z,13.30
2019-05-02T17:16:17.308Z,13.30
2019-05-02T17:18:48.395Z,13.30
2019-05-02T17:21:18.679Z,13.30
2019-05-02T17:23:49.834Z,13.30
2019-05-02T17:26:19.681Z,13.30
2019-05-02T17:28:49.463Z,13.30
2019-05-02T17:31:21.121Z,13.30
2019-05-02T17:33:52.927Z,13.30
2019-05-02T17:36:28.511Z,13.30
2019-05-02T17:38:54.591Z,13.20
2019-05-02T17:41:24.323Z,13.20
2019-05-02T17:43:57.508Z,13.20
2019-05-02T17:46:25.988Z,13.20
2019-05-02T17:48:55.775Z,13.20
2019-05-02T17:51:37.893Z,13.20
2019-05-02T17:54:08.747Z,13.10
2019-05-02T17:56:38.398Z,13.10
2019-05-02T17:59:07.979Z,13.10
2019-05-02T18:01:41.810Z,13.10
2019-05-02T18:04:15.293Z,13.10
2019-05-02T18:06:46.912Z,13.10
2019-05-02T18:09:15.645Z,13.00
2019-05-02T18:12:07.183Z,13.00
2019-05-02T18:14:35.938Z,13.00
2019-05-02T18:17:05.773Z,13.00
2019-05-02T18:19:35.324Z,13.00
2019-05-02T18:22:07.125Z,12.90
2019-05-02T18:24:37.463Z,12.90
2019-05-02T18:27:08.890Z,12.90
2019-05-02T18:29:42.440Z,12.90
2019-05-02T18:32:12.802Z,12.90
2019-05-02T18:34:42.960Z,12.90
2019-05-02T18:37:12.628Z,12.90
2019-05-02T18:39:49.927Z,12.90
2019-05-02T18:42:16.530Z,12.90
2019-05-02T18:44:48.230Z,12.90
2019-05-02T18:47:20.373Z,12.80
2019-05-02T18:49:48.748Z,12.80
2019-05-02T18:52:18.699Z,12.80
2019-05-02T18:54:48.381Z,12.80
2019-05-02T18:57:24.470Z,12.70
2019-05-02T18:59:52.019Z,12.70
2019-05-02T19:02:21.545Z,12.70
2019-05-02T19:04:51.672Z,12.60
2019-05-02T19:07:30.870Z,12.60
2019-05-02T19:09:53.928Z,12.60
2019-05-02T19:12:26.003Z,12.50
2019-05-02T19:14:57.539Z,12.40
2019-05-02T19:17:26.072Z,12.40
2019-05-02T19:19:55.515Z,12.40
2019-05-02T19:22:25.080Z,12.30
2019-05-02T19:24:54.524Z,12.30
2019-05-02T19:27:42.902Z,12.20
2019-05-02T19:30:13.378Z,12.20
2019-05-02T19:32:42.818Z,12.10
2019-05-02T19:35:12.331Z,12.10
2019-05-02T19:37:46.223Z,12.10
2019-05-02T19:40:20.050Z,12.00
2019-05-02T19:42:47.324Z,12.00
2019-05-02T19:45:17.043Z,11.90
2019-05-02T19:47:48.982Z,11.90
2019-05-02T19:50:41.760Z,11.80
2019-05-02T19:53:17.141Z,11.80
2019-05-02T19:55:42.707Z,11.70
2019-05-02T19:58:11.335Z,11.70
2019-05-02T20:00:42.217Z,11.70
2019-05-02T20:03:13.677Z,11.70
2019-05-02T20:05:43.953Z,11.60
2019-05-02T20:08:14.612Z,11.60
2019-05-02T20:10:49.348Z,11.60
2019-05-02T20:13:20.290Z,11.50
2019-05-02T20:15:57.074Z,11.50
2019-05-02T20:18:27.929Z,11.50
2019-05-02T20:21:23.384Z,11.40
2019-05-02T20:23:46.342Z,11.40
2019-05-02T20:26:17.118Z,11.30
2019-05-02T20:28:46.881Z,11.30
2019-05-02T20:31:17.796Z,11.30
2019-05-02T20:33:47.257Z,11.30
2019-05-02T20:36:16.680Z,11.20
2019-05-02T20:38:46.303Z,11.20
2019-05-02T20:41:16.350Z,11.20
2019-05-02T20:43:46.390Z,11.20
2019-05-02T20:46:16.187Z,11.10
2019-05-02T20:48:45.869Z,11.10
2019-05-02T20:51:16.155Z,11.10
2019-05-02T20:53:45.634Z,11.10
2019-05-02T20:56:15.099Z,11.10
2019-05-02T20:58:44.930Z,11.10
2019-05-02T21:01:14.416Z,11.10
2019-05-02T21:03:43.864Z,11.10
2019-05-02T21:06:52.518Z,11.00
2019-05-02T21:09:55.635Z,11.00
2019-05-02T21:12:25.149Z,11.00
2019-05-02T21:14:54.634Z,11.00
2019-05-02T21:17:24.055Z,11.00
2019-05-02T21:19:53.463Z,10.90
2019-05-02T21:22:26.263Z,10.90
2019-05-02T21:24:55.643Z,10.80
2019-05-02T21:27:25.025Z,10.80
2019-05-02T21:29:54.528Z,10.70
2019-05-02T21:32:23.940Z,10.70
2019-05-02T21:34:53.470Z,10.70
2019-05-02T21:37:22.972Z,10.70
2019-05-02T21:39:52.360Z,10.60
2019-05-02T21:42:22.561Z,10.60
2019-05-02T21:44:52.224Z,10.60
2019-05-02T21:47:22.496Z,10.60
2019-05-02T21:50:01.856Z,10.60
2019-05-02T21:53:02.553Z,10.60
2019-05-02T21:55:49.538Z,10.60
2019-05-02T21:58:18.983Z,10.50
2019-05-02T22:00:55.512Z,10.50
2019-05-02T22:03:25.348Z,10.50
2019-05-02T22:05:54.780Z,10.50
2019-05-02T22:08:24.167Z,10.50
2019-05-02T22:10:53.621Z,10.50
2019-05-02T22:13:23.058Z,10.50
2019-05-02T22:15:52.486Z,10.50
2019-05-02T22:18:21.880Z,10.50
2019-05-02T22:20:52.278Z,10.50
2019-05-02T22:23:21.825Z,10.50
2019-05-02T22:25:52.627Z,10.50
2019-05-02T22:28:22.293Z,10.50
2019-05-02T22:30:52.218Z,10.40
2019-05-02T22:33:22.837Z,10.40
2019-05-02T22:35:52.453Z,10.30
2019-05-02T22:38:35.081Z,10.30
2019-05-02T22:41:04.487Z,10.30
2019-05-02T22:43:33.984Z,10.30
2019-05-02T22:46:06.279Z,10.30
2019-05-02T22:48:35.709Z,10.30
2019-05-02T22:51:05.181Z,10.30
2019-05-02T22:53:34.558Z,10.30
2019-05-02T22:56:03.938Z,10.30
2019-05-02T22:58:33.344Z,10.30
2019-05-02T23:01:03.635Z,10.30
2019-05-02T23:03:33.037Z,10.30
2019-05-02T23:06:02.441Z,10.30
2019-05-02T23:08:34.069Z,10.20
2019-05-02T23:11:03.546Z,10.20
2019-05-02T23:13:33.036Z,10.20
2019-05-02T23:16:02.883Z,10.20
2019-05-02T23:18:32.515Z,10.20
2019-05-02T23:21:02.202Z,10.20
2019-05-02T23:23:32.712Z,10.10
2019-05-02T23:26:17.726Z,10.10
2019-05-02T23:28:49.015Z,10.10
2019-05-02T23:31:18.403Z,10.00
2019-05-02T23:34:01.846Z,10.00
2019-05-02T23:36:32.441Z,10.00
2019-05-02T23:39:02.509Z,10.00
2019-05-02T23:41:32.870Z,10.00
2019-05-02T23:44:02.935Z,10.00
2019-05-02T23:46:32.438Z,9.90
2019-05-02T23:49:02.135Z,10.00
2019-05-02T23:51:32.081Z,9.90
2019-05-02T23:54:02.198Z,9.90
2019-05-02T23:56:32.526Z,10.00
2019-05-02T23:59:02.780Z,9.90
